Time;durP1;ratioP1;P1;durP2;ratioP2;P2;SDS_P1;SDS_P2;PMS_P1;PMS_P2;Temp;Humidity;BMP_temperature;BMP_pressure;BME280_temperature;BME280_humidity;BME280_pressure;Samples;Min_cycle;Max_cycle;Signal;HPM_P1;HPM_P2
2024/03/03 00:00:29;;;;;;;32.90;20.10;;;;;;;10.26;92.76;96473.78;5136381;23;20585;-83
2024/03/03 00:02:32;;;;;;;36.73;20.40;;;;;;;10.19;93.64;96472.69;5137754;23;20586;-83
2024/03/03 00:04:35;;;;;;;33.87;20.80;;;;;;;10.13;94.01;96478.50;5135683;23;20636;-83
2024/03/03 00:06:39;;;;;;;32.43;19.67;;;;;;;10.09;93.71;96474.53;5161341;23;21423;-84
2024/03/03 00:08:43;;;;;;;38.23;20.23;;;;;;;10.10;94.19;96476.19;5134670;23;20617;-83
2024/03/03 00:10:46;;;;;;;33.53;18.97;;;;;;;10.04;94.06;96468.94;5162258;23;20565;-83
2024/03/03 00:12:49;;;;;;;33.10;20.97;;;;;;;10.03;94.66;96471.69;5161119;23;20575;-83
2024/03/03 00:14:52;;;;;;;34.67;21.27;;;;;;;10.03;94.87;96469.06;5160655;23;21153;-83
2024/03/03 00:16:54;;;;;;;36.20;21.90;;;;;;;9.99;94.80;96475.53;5161189;23;20583;-83
2024/03/03 00:18:58;;;;;;;34.40;20.57;;;;;;;10.01;94.22;96479.63;5161638;23;20663;-86
2024/03/03 00:21:01;;;;;;;34.40;19.50;;;;;;;10.03;94.51;96487.31;5188036;22;20564;-86
2024/03/03 00:23:04;;;;;;;31.83;19.95;;;;;;;10.01;94.84;96478.78;5161261;23;20612;-85
2024/03/03 00:25:09;;;;;;;31.83;18.57;;;;;;;10.00;94.47;96477.97;5161478;23;20261;-85
2024/03/03 00:27:12;;;;;;;37.13;20.20;;;;;;;10.00;94.77;96472.78;5160873;23;20634;-85
2024/03/03 00:29:15;;;;;;;31.80;20.70;;;;;;;9.99;95.08;96471.13;5161724;23;20572;-85
2024/03/03 00:31:18;;;;;;;34.90;20.63;;;;;;;10.00;94.64;96470.16;5135156;23;20647;-85
2024/03/03 00:33:22;;;;;;;31.30;19.00;;;;;;;9.99;94.02;96471.13;5160204;23;20607;-85
2024/03/03 00:35:25;;;;;;;32.30;19.70;;;;;;;9.92;94.00;96458.78;5135549;23;21061;-86
2024/03/03 00:37:30;;;;;;;33.37;19.60;;;;;;;9.95;94.31;96461.97;5135367;23;20605;-85
2024/03/03 00:39:32;;;;;;;35.07;20.50;;;;;;;9.93;94.19;96460.41;5161049;23;21107;-85
2024/03/03 00:41:36;;;;;;;34.88;20.80;;;;;;;9.94;93.29;96467.31;5135848;23;20640;-86
2024/03/03 00:43:40;;;;;;;33.80;20.20;;;;;;;9.96;94.04;96460.97;5160509;23;20181;-86
2024/03/03 00:45:43;;;;;;;34.53;19.57;;;;;;;9.98;93.87;96455.63;5135252;23;20624;-85
2024/03/03 00:47:48;;;;;;;32.67;19.73;;;;;;;9.99;94.22;96455.50;5136308;23;20616;-85
2024/03/03 00:49:52;;;;;;;38.00;20.27;;;;;;;9.99;94.01;96454.69;5159189;23;20909;-86
2024/03/03 00:51:55;;;;;;;31.23;19.53;;;;;;;9.99;93.85;96450.28;5188721;22;20631;-85
2024/03/03 00:53:58;;;;;;;31.67;20.00;;;;;;;10.00;93.80;96461.53;5136688;23;20574;-86
2024/03/03 00:56:02;;;;;;;33.27;20.00;;;;;;;9.99;93.26;96449.47;5134552;23;20994;-85
2024/03/03 00:58:07;;;;;;;32.60;20.20;;;;;;;9.98;93.81;96455.63;5135034;23;20605;-85
2024/03/03 01:00:11;;;;;;;39.03;21.10;;;;;;;9.85;94.33;96442.91;5137317;23;21182;-85
2024/03/03 01:02:15;;;;;;;40.27;20.93;;;;;;;9.85;94.55;96437.69;5138976;23;21132;-86
2024/03/03 01:04:18;;;;;;;35.83;20.27;;;;;;;9.85;93.80;96442.91;5163393;23;20580;-85
2024/03/03 01:06:22;;;;;;;36.10;20.00;;;;;;;9.86;94.23;96439.34;5162088;23;20702;-85
2024/03/03 01:08:25;;;;;;;31.97;19.40;;;;;;;9.81;94.40;96430.31;5137074;23;20707;-86
2024/03/03 01:10:27;;;;;;;35.43;21.63;;;;;;;9.78;94.53;96434.97;5161728;23;21131;-84
2024/03/03 01:12:31;;;;;;;35.67;20.73;;;;;;;9.70;95.00;96434.88;5137628;23;20581;-85
2024/03/03 01:14:36;;;;;;;35.27;20.60;;;;;;;9.66;94.64;96431.69;5135284;23;20596;-85
2024/03/03 01:16:39;;;;;;;35.00;21.97;;;;;;;9.61;94.98;96427.91;5136618;23;20591;-85
2024/03/03 01:18:42;;;;;;;35.80;21.00;;;;;;;9.59;94.73;96422.00;5162875;23;21076;-85
2024/03/03 01:20:46;;;;;;;34.30;20.97;;;;;;;9.54;95.64;96419.00;5135472;23;21131;-85
2024/03/03 01:22:50;;;;;;;32.17;19.20;;;;;;;9.50;95.45;96412.41;5137934;23;20570;-85
2024/03/03 01:24:53;;;;;;;34.63;19.70;;;;;;;9.50;95.70;96408.06;5163055;23;20671;-85
2024/03/03 01:26:56;;;;;;;36.80;20.58;;;;;;;9.41;95.78;96410.66;5136066;23;21124;-85
2024/03/03 01:29:00;;;;;;;34.30;20.60;;;;;;;9.39;96.12;96402.16;5137213;23;20226;-83
2024/03/03 01:31:05;;;;;;;32.23;20.60;;;;;;;9.36;95.74;96405.03;5137596;23;20623;-83
2024/03/03 01:33:08;;;;;;;35.15;20.73;;;;;;;9.41;95.59;96402.84;5162996;23;21013;-83
2024/03/03 01:35:12;;;;;;;34.05;19.75;;;;;;;9.34;96.56;96404.38;5136645;23;20527;-83
2024/03/03 01:37:17;;;;;;;39.22;21.20;;;;;;;9.34;97.41;96399.16;5160675;23;20181;-83
2024/03/03 01:39:20;;;;;;;36.00;20.48;;;;;;;9.34;96.69;96396.56;5162253;23;20174;-83
2024/03/03 01:41:24;;;;;;;35.20;21.08;;;;;;;9.32;96.93;96393.28;5187112;22;20246;-83
2024/03/03 01:43:27;;;;;;;32.17;20.10;;;;;;;9.29;96.51;96395.34;5136895;23;20239;-83
2024/03/03 01:45:30;;;;;;;37.17;20.85;;;;;;;9.28;95.98;96384.13;5188790;22;20169;-83
2024/03/03 01:47:36;;;;;;;32.83;20.33;;;;;;;9.28;96.53;96388.50;5161401;23;20177;-83
2024/03/03 01:49:38;;;;;;;35.05;19.40;;;;;;;9.24;96.19;96389.72;5161869;23;20619;-83
2024/03/03 01:51:42;;;;;;;33.85;20.60;;;;;;;9.24;96.33;96393.16;5162701;23;20991;-83
2024/03/03 01:53:48;;;;;;;38.55;20.35;;;;;;;9.24;95.81;96382.75;5137474;23;20232;-83
2024/03/03 01:55:51;;;;;;;38.08;20.15;;;;;;;9.27;96.37;96381.66;5135425;23;20198;-83
2024/03/03 01:58:00;;;;;;;33.30;20.38;;;;;;;9.25;96.08;96384.41;5137254;23;20206;-83
2024/03/03 02:00:09;;;;;;;34.22;20.90;;;;;;;9.29;95.79;96390.97;5135753;23;20233;-83
2024/03/03 02:02:17;;;;;;;30.77;17.80;;;;;;;9.31;95.27;96381.25;5137091;23;20170;-83
2024/03/03 02:04:21;;;;;;;32.47;20.17;;;;;;;9.33;95.97;96381.09;5162440;23;20181;-83
2024/03/03 02:06:31;;;;;;;32.00;20.05;;;;;;;9.34;95.03;96388.75;5136934;23;20268;-83
2024/03/03 02:08:34;;;;;;;33.72;20.73;;;;;;;9.38;95.02;96390.09;5137545;23;20197;-83
2024/03/03 02:10:39;;;;;;;34.17;19.73;;;;;;;9.39;95.28;96389.16;5137146;23;20229;-83
2024/03/03 02:12:45;;;;;;;33.05;19.98;;;;;;;9.38;94.91;96379.69;5136900;23;20573;-83
2024/03/03 02:14:49;;;;;;;33.05;19.40;;;;;;;9.30;94.20;96379.59;5162709;23;20176;-83
2024/03/03 02:16:53;;;;;;;32.78;19.75;;;;;;;9.21;94.73;96372.63;5135966;23;20179;-82
2024/03/03 02:18:55;;;;;;;30.70;20.08;;;;;;;9.21;95.48;96384.81;5162588;23;20173;-82
2024/03/03 02:21:00;;;;;;;35.78;20.85;;;;;;;9.14;95.36;96371.53;5161801;23;20185;-83
2024/03/03 02:23:09;;;;;;;34.83;20.60;;;;;;;9.12;96.17;96378.63;5161529;23;20248;-83
2024/03/03 02:25:12;;;;;;;39.30;21.20;;;;;;;9.12;96.72;96376.03;5134877;23;20182;-83
2024/03/03 02:27:15;;;;;;;34.95;19.65;;;;;;;9.11;96.12;96371.81;5159738;23;20703;-83
2024/03/03 02:29:21;;;;;;;35.70;20.27;;;;;;;9.07;96.46;96374.84;5136059;23;21130;-83
2024/03/03 02:31:26;;;;;;;31.38;19.85;;;;;;;9.01;97.16;96376.19;5135248;23;20601;-83
2024/03/03 02:33:29;;;;;;;34.15;19.10;;;;;;;9.00;96.43;96377.13;5161875;23;20191;-83
2024/03/03 02:35:33;;;;;;;39.00;21.03;;;;;;;8.97;96.51;96376.59;5188074;22;20187;-83
2024/03/03 02:37:36;;;;;;;37.97;20.90;;;;;;;8.95;96.28;96370.72;5160767;23;20578;-83
2024/03/03 02:39:42;;;;;;;35.67;21.10;;;;;;;8.96;97.07;96383.59;5161831;23;20679;-83
2024/03/03 02:41:46;;;;;;;33.65;19.55;;;;;;;8.99;96.06;96385.91;5161735;23;20680;-83
2024/03/03 02:43:50;;;;;;;36.92;20.63;;;;;;;8.97;95.94;96387.00;5136689;22;20185;-83
2024/03/03 02:45:54;;;;;;;36.25;20.48;;;;;;;8.93;96.48;96389.06;5132961;23;20182;-83
2024/03/03 02:47:57;;;;;;;35.17;20.88;;;;;;;8.95;96.25;96383.72;5188157;22;20261;-83
2024/03/03 02:50:21;;;;;;;33.83;19.90;;;;;;;8.92;95.57;96379.59;5165793;22;20565;-83
2024/03/03 02:52:44;;;;;;;34.05;19.05;;;;;;;8.94;96.50;96375.13;5144448;22;20159;-83
2024/03/03 02:55:09;;;;;;;34.88;20.17;;;;;;;8.96;96.00;96367.19;5143876;22;20165;-83
2024/03/03 02:57:32;;;;;;;29.95;17.80;;;;;;;8.96;94.92;96367.19;5144876;22;20150;-83
2024/03/03 02:59:56;;;;;;;28.55;17.80;;;;;;;8.94;95.11;96372.50;5143721;22;20707;-83
2024/03/03 03:02:19;;;;;;;37.13;19.40;;;;;;;8.96;96.23;96372.38;5145248;22;20166;-83
2024/03/03 03:04:43;;;;;;;34.00;19.52;;;;;;;8.97;95.66;96377.41;5165563;22;21341;-83
2024/03/03 03:07:05;;;;;;;32.97;19.30;;;;;;;8.89;94.66;96360.88;5186887;22;20648;-83
2024/03/03 03:09:28;;;;;;;32.60;18.87;;;;;;;8.84;94.83;96363.06;5165816;22;20591;-83
2024/03/03 03:11:51;;;;;;;32.13;19.13;;;;;;;8.77;94.51;96361.16;5165066;22;21156;-83
2024/03/03 03:14:14;;;;;;;29.80;18.08;;;;;;;8.75;95.17;96350.91;5142819;22;21135;-83
2024/03/03 03:16:40;;;;;;;29.63;17.67;;;;;;;8.70;94.46;96349.66;5143448;22;20212;-83
2024/03/03 03:19:02;;;;;;;34.03;19.13;;;;;;;8.68;94.91;96361.97;5165305;22;20161;-83
2024/03/03 03:21:26;;;;;;;28.02;17.85;;;;;;;8.67;95.00;96365.50;5143973;22;20284;-83
2024/03/03 03:23:48;;;;;;;31.45;18.20;;;;;;;8.68;94.45;96364.56;5166186;22;20861;-83
2024/03/03 03:26:10;;;;;;;32.92;20.20;;;;;;;8.68;95.18;96373.16;5164456;22;20171;-83
2024/03/03 03:28:34;;;;;;;33.88;19.48;;;;;;;8.76;95.52;96375.09;5166719;22;20520;-83
2024/03/03 03:30:55;;;;;;;31.33;18.90;;;;;;;8.81;94.83;96375.50;5166071;22;20236;-83
2024/03/03 03:33:17;;;;;;;31.35;19.55;;;;;;;8.85;94.63;96382.06;5144764;22;20172;-83
2024/03/03 03:35:39;;;;;;;31.70;19.67;;;;;;;8.87;95.24;96382.75;5164711;22;20644;-83
2024/03/03 03:38:01;;;;;;;34.93;20.80;;;;;;;8.83;94.83;96384.00;5189145;22;20184;-83
2024/03/03 03:40:24;;;;;;;35.08;19.08;;;;;;;8.82;94.81;96392.75;5189360;22;20577;-83
2024/03/03 03:42:46;;;;;;;35.53;19.80;;;;;;;8.84;95.46;96388.22;5188571;22;20167;-83
2024/03/03 03:45:10;;;;;;;34.37;18.10;;;;;;;8.86;95.38;96394.13;5165553;22;20687;-82
2024/03/03 03:47:31;;;;;;;40.58;20.70;;;;;;;8.85;95.14;96400.28;5144318;22;21090;-83
2024/03/03 03:49:54;;;;;;;32.95;17.85;;;;;;;8.82;93.68;96401.34;5143337;22;20350;-83
2024/03/03 03:52:16;;;;;;;33.15;18.70;;;;;;;8.76;95.00;96388.91;5164756;22;20165;-83
2024/03/03 03:54:38;;;;;;;32.63;18.33;;;;;;;8.75;94.58;96397.69;5188498;22;20219;-83
2024/03/03 03:57:00;;;;;;;30.50;19.40;;;;;;;8.63;93.59;96387.50;5188138;22;20800;-83
2024/03/03 03:59:22;;;;;;;34.15;19.48;;;;;;;8.58;93.65;96392.31;5188136;22;20163;-83
2024/03/03 04:01:49;;;;;;;33.60;20.13;;;;;;;8.55;94.42;96387.38;5164952;22;20224;-83
2024/03/03 04:04:12;;;;;;;35.70;20.07;;;;;;;8.53;94.42;96394.50;5143694;22;20172;-83
2024/03/03 04:06:35;;;;;;;35.70;20.58;;;;;;;8.52;93.50;96387.63;5143345;22;20580;-83
2024/03/03 04:08:58;;;;;;;29.57;17.93;;;;;;;8.51;94.64;96393.81;5144091;22;20210;-83
2024/03/03 04:11:21;;;;;;;30.00;17.45;;;;;;;8.49;93.86;96393.09;5188075;22;20507;-83
2024/03/03 04:13:42;;;;;;;30.10;17.95;;;;;;;8.49;94.63;96390.50;5143878;22;20220;-83
2024/03/03 04:16:06;;;;;;;34.53;21.20;;;;;;;8.49;94.75;96386.16;5161975;22;20721;-83
2024/03/03 04:18:30;;;;;;;31.88;19.60;;;;;;;8.50;92.78;96384.38;5188861;22;20634;-83
2024/03/03 04:20:52;;;;;;;31.48;19.45;;;;;;;8.49;92.62;96387.91;5165409;22;20192;-83
2024/03/03 04:23:17;;;;;;;28.55;19.20;;;;;;;8.45;92.89;96381.34;5187123;22;20608;-83
2024/03/03 04:25:38;;;;;;;33.72;18.58;;;;;;;8.40;94.39;96386.09;5164412;22;20211;-83
2024/03/03 04:28:00;;;;;;;30.50;18.02;;;;;;;8.39;93.35;96381.03;5165687;22;20169;-82
2024/03/03 04:30:21;;;;;;;32.95;18.90;;;;;;;8.36;94.02;96386.50;5165341;22;20247;-82
2024/03/03 04:32:43;;;;;;;31.35;18.73;;;;;;;8.33;94.43;96384.19;5166213;22;20181;-83
2024/03/03 04:35:07;;;;;;;33.08;19.23;;;;;;;8.33;94.72;96374.63;5189653;22;20189;-83
2024/03/03 04:37:30;;;;;;;32.28;19.13;;;;;;;8.32;95.82;96372.97;5165788;22;20200;-83
2024/03/03 04:39:52;;;;;;;32.97;18.70;;;;;;;8.33;94.40;96382.41;5167601;22;20164;-83
2024/03/03 04:42:14;;;;;;;31.98;19.70;;;;;;;8.32;95.16;96370.38;5145415;22;20212;-83
2024/03/03 04:44:36;;;;;;;31.90;17.75;;;;;;;8.35;95.19;96370.13;5189403;22;20164;-83
2024/03/03 04:46:58;;;;;;;34.25;18.38;;;;;;;8.35;94.62;96375.31;5189354;22;20252;-83
2024/03/03 04:49:19;;;;;;;31.50;18.50;;;;;;;8.26;94.40;96363.13;5166548;22;20708;-83
2024/03/03 04:51:43;;;;;;;37.58;18.73;;;;;;;8.23;94.39;96371.19;5167411;22;20529;-83
2024/03/03 04:54:05;;;;;;;31.55;18.10;;;;;;;8.24;95.15;96371.97;5167561;22;20218;-83
2024/03/03 04:56:27;;;;;;;32.13;17.73;;;;;;;8.27;94.47;96374.31;5189261;22;20223;-83
2024/03/03 04:58:48;;;;;;;34.17;21.67;;;;;;;8.27;94.55;96377.75;5187169;22;20674;-85
2024/03/03 05:01:10;;;;;;;36.20;20.65;;;;;;;8.25;93.63;96376.22;5166401;22;20167;-85
2024/03/03 05:03:32;;;;;;;26.98;18.75;;;;;;;8.19;93.70;96371.56;5167428;22;20300;-85
2024/03/03 05:05:55;;;;;;;34.63;22.10;;;;;;;8.10;93.93;96370.56;5144827;22;20201;-85
2024/03/03 05:08:18;;;;;;;35.13;21.15;;;;;;;8.06;94.05;96363.19;5167209;22;20648;-85
2024/03/03 05:10:40;;;;;;;29.75;17.48;;;;;;;8.03;94.50;96353.06;5166730;22;20507;-86
2024/03/03 05:13:02;;;;;;;33.42;18.10;;;;;;;8.00;95.12;96350.72;5145014;22;20161;-86
2024/03/03 05:15:23;;;;;;;30.38;17.83;;;;;;;7.90;94.57;96349.06;5165895;22;20168;-85
2024/03/03 05:17:45;;;;;;;29.13;17.30;;;;;;;7.84;95.30;96350.38;5144361;22;20217;-85
2024/03/03 05:20:08;;;;;;;34.38;17.25;;;;;;;7.85;95.10;96356.38;5145128;22;20574;-85
2024/03/03 05:22:30;;;;;;;30.35;16.98;;;;;;;7.82;93.36;96359.25;5166297;22;20188;-85
2024/03/03 05:24:54;;;;;;;27.67;16.88;;;;;;;7.77;94.10;96366.59;5166120;22;20704;-85
2024/03/03 05:27:17;;;;;;;29.23;17.95;;;;;;;7.73;92.88;96365.25;5165871;22;20523;-85
2024/03/03 05:29:39;;;;;;;28.83;17.13;;;;;;;7.70;93.82;96371.50;5188473;22;20231;-84
2024/03/03 05:32:00;;;;;;;30.58;17.15;;;;;;;7.70;94.01;96370.69;5189143;22;20201;-85
2024/03/03 05:34:22;;;;;;;29.30;17.67;;;;;;;7.69;94.20;96374.22;5166625;22;20656;-85
2024/03/03 05:36:46;;;;;;;31.30;17.92;;;;;;;7.68;93.45;96368.22;5166335;22;20165;-85
2024/03/03 05:39:09;;;;;;;34.40;18.48;;;;;;;7.58;94.98;96371.72;5167504;22;20176;-85
2024/03/03 05:41:32;;;;;;;31.20;17.25;;;;;;;7.55;95.55;96364.19;5145952;22;20701;-85
2024/03/03 05:43:54;;;;;;;31.40;17.75;;;;;;;7.53;93.92;96366.06;5145703;22;20225;-85
2024/03/03 05:46:16;;;;;;;28.35;17.13;;;;;;;7.54;94.25;96370.31;5164937;22;20215;-85
2024/03/03 05:48:38;;;;;;;27.98;17.17;;;;;;;7.53;95.18;96366.06;5143294;22;20168;-85
2024/03/03 05:51:00;;;;;;;33.05;17.25;;;;;;;7.54;94.32;96365.94;5189115;22;20241;-85
2024/03/03 05:53:22;;;;;;;30.83;16.95;;;;;;;7.54;93.86;96365.13;5144758;22;20173;-87
2024/03/03 05:55:44;;;;;;;30.58;16.55;;;;;;;7.51;93.63;96365.41;5144146;22;20210;-86
2024/03/03 05:58:07;;;;;;;29.75;17.85;;;;;;;7.51;94.73;96373.19;5167464;22;20532;-87
2024/03/03 06:00:29;;;;;;;29.25;16.45;;;;;;;7.50;94.77;96374.13;5166888;22;20161;-88
2024/03/03 06:02:51;;;;;;;29.33;18.17;;;;;;;7.44;94.00;96368.63;5167554;22;20234;-88
2024/03/03 06:05:14;;;;;;;26.83;16.67;;;;;;;7.42;94.54;96375.72;5144126;22;20284;-85
2024/03/03 06:07:36;;;;;;;29.83;17.42;;;;;;;7.42;93.84;96391.28;5165639;22;20573;-86
2024/03/03 06:09:58;;;;;;;31.67;17.38;;;;;;;7.39;93.76;96387.16;5145758;22;20170;-83
2024/03/03 06:12:20;;;;;;;29.92;16.80;;;;;;;7.39;93.79;96389.75;5188510;22;20163;-82
2024/03/03 06:14:47;;;;;;;29.33;16.92;;;;;;;7.35;94.00;96390.97;5142785;22;20168;-83
2024/03/03 06:17:09;;;;;;;30.30;18.58;;;;;;;7.32;93.86;96396.41;5143532;22;20190;-83
2024/03/03 06:19:31;;;;;;;31.80;17.30;;;;;;;7.32;94.32;96400.75;5164490;22;20227;-83
2024/03/03 06:21:53;;;;;;;28.70;17.08;;;;;;;7.31;94.20;96397.34;5144809;22;20161;-83
2024/03/03 06:24:15;;;;;;;25.67;15.48;;;;;;;7.29;92.59;96401.00;5164777;22;20165;-83
2024/03/03 06:26:37;;;;;;;31.55;18.10;;;;;;;7.25;93.39;96405.63;5164888;22;20167;-83
2024/03/03 06:28:59;;;;;;;28.27;15.77;;;;;;;7.21;92.14;96395.63;5164351;22;20637;-83
2024/03/03 06:31:27;;;;;;;27.15;15.93;;;;;;;7.23;92.81;96404.94;5165258;22;20192;-83
2024/03/03 06:33:49;;;;;;;24.52;14.98;;;;;;;7.19;90.58;96397.53;5164628;22;20164;-83
2024/03/03 06:36:18;;;;;;;31.88;15.43;;;;;;;7.16;92.25;96385.66;5142283;22;20244;-83
2024/03/03 06:38:40;;;;;;;28.25;15.77;;;;;;;7.30;92.21;96390.50;5165358;22;20237;-83
2024/03/03 06:41:02;;;;;;;29.25;16.75;;;;;;;7.49;92.76;96401.81;5165124;22;20267;-83
2024/03/03 06:43:24;;;;;;;27.08;15.98;;;;;;;7.67;92.52;96404.66;5143532;22;20166;-83
2024/03/03 06:45:46;;;;;;;27.13;16.20;;;;;;;7.85;91.98;96411.72;5187251;22;20502;-83
2024/03/03 06:48:09;;;;;;;24.50;14.82;;;;;;;8.05;90.24;96408.25;5144139;22;20266;-83
2024/03/03 06:50:31;;;;;;;32.40;16.50;;;;;;;8.25;90.84;96413.41;5166141;22;20326;-83
2024/03/03 06:52:53;;;;;;;26.00;15.63;;;;;;;8.40;90.82;96403.47;5144724;22;20636;-83
2024/03/03 06:55:15;;;;;;;31.77;18.30;;;;;;;8.54;89.60;96412.53;5143446;22;20189;-82
2024/03/03 06:57:37;;;;;;;29.75;17.23;;;;;;;8.72;90.10;96404.91;5143889;22;20228;-83
2024/03/03 06:59:59;;;;;;;31.45;18.00;;;;;;;8.93;90.03;96416.84;5142580;22;20157;-83
2024/03/03 07:02:21;;;;;;;26.30;16.55;;;;;;;9.14;89.20;96420.09;5164883;22;20324;-83
2024/03/03 07:04:44;;;;;;;32.33;17.35;;;;;;;9.32;87.52;96418.47;5164771;22;20665;-82
2024/03/03 07:07:06;;;;;;;30.30;17.17;;;;;;;9.45;86.52;96417.22;5165479;22;20206;-82
2024/03/03 07:09:27;;;;;;;29.10;16.50;;;;;;;9.60;86.94;96421.03;5144830;22;20169;-83
2024/03/03 07:11:50;;;;;;;26.10;16.73;;;;;;;9.72;86.68;96420.72;5166269;22;20188;-83
2024/03/03 07:14:14;;;;;;;29.60;17.40;;;;;;;9.94;86.17;96434.28;5165975;22;20195;-83
2024/03/03 07:16:37;;;;;;;30.52;17.13;;;;;;;10.13;86.49;96426.41;5141917;22;20673;-83
2024/03/03 07:18:58;;;;;;;30.35;18.00;;;;;;;10.28;86.12;96419.75;5165720;22;20200;-83
2024/03/03 07:21:22;;;;;;;29.45;18.15;;;;;;;10.44;85.35;96435.59;5166529;22;20168;-83
2024/03/03 07:23:45;;;;;;;27.02;16.88;;;;;;;10.61;84.62;96430.41;5189627;22;20163;-83
2024/03/03 07:26:07;;;;;;;24.20;15.93;;;;;;;10.72;84.06;96430.22;5165477;22;20586;-83
2024/03/03 07:28:28;;;;;;;27.55;17.17;;;;;;;10.91;83.25;96425.69;5165741;22;20165;-83
2024/03/03 07:30:50;;;;;;;29.33;18.80;;;;;;;11.11;85.60;96422.00;5144474;22;20193;-83
2024/03/03 07:33:13;;;;;;;29.75;17.40;;;;;;;11.32;83.32;96432.94;5189083;22;20588;-83
2024/03/03 07:35:35;;;;;;;27.67;17.63;;;;;;;11.45;81.79;96430.78;5144481;22;20657;-83
2024/03/03 07:37:59;;;;;;;32.00;18.23;;;;;;;11.64;81.85;96433.25;5144209;22;20166;-83
2024/03/03 07:40:21;;;;;;;28.70;19.47;;;;;;;11.79;82.32;96425.53;5166626;22;20575;-83
2024/03/03 07:42:42;;;;;;;26.90;17.73;;;;;;;11.81;82.05;96431.41;5145620;22;21144;-83
2024/03/03 07:45:05;;;;;;;28.50;17.97;;;;;;;11.90;80.09;96430.50;5166045;22;20583;-83
2024/03/03 07:47:27;;;;;;;28.13;17.70;;;;;;;11.97;79.88;96430.72;5167797;22;20520;-90
2024/03/03 07:49:49;;;;;;;30.00;20.83;;;;;;;12.03;81.02;96422.28;5168234;22;20509;-84
2024/03/03 07:52:13;;;;;;;36.87;22.83;;;;;;;12.14;79.96;96414.16;5146083;22;20557;-84
2024/03/03 07:54:37;;;;;;;26.30;17.23;;;;;;;12.16;79.90;96414.81;5168511;22;21047;-84
2024/03/03 07:56:59;;;;;;;25.47;17.57;;;;;;;12.28;79.20;96419.59;5145380;22;20553;-84
2024/03/03 07:59:21;;;;;;;25.30;17.10;;;;;;;12.44;78.94;96411.84;5145918;22;20517;-84
2024/03/03 08:01:43;;;;;;;23.63;15.40;;;;;;;12.56;78.72;96415.84;5145988;22;20568;-84
2024/03/03 08:04:06;;;;;;;28.10;17.43;;;;;;;12.63;79.16;96411.59;5167089;22;20515;-84
2024/03/03 08:06:28;;;;;;;23.93;16.47;;;;;;;12.88;79.39;96416.78;5143469;22;20680;-84
2024/03/03 08:08:50;;;;;;;24.97;16.47;;;;;;;13.20;78.66;96420.31;5146879;22;20508;-84
2024/03/03 08:11:13;;;;;;;26.53;16.17;;;;;;;13.39;79.16;96412.13;5145764;22;20900;-85
2024/03/03 08:13:35;;;;;;;23.67;15.60;;;;;;;13.59;77.88;96418.66;5166920;22;20512;-82
2024/03/03 08:15:57;;;;;;;21.50;15.30;;;;;;;13.80;74.82;96418.03;5165658;22;20520;-83
2024/03/03 08:18:19;;;;;;;24.50;15.57;;;;;;;13.90;76.17;96418.66;5146409;22;20545;-83
2024/03/03 08:20:41;;;;;;;20.63;15.00;;;;;;;13.97;75.69;96416.19;5167566;22;20660;-83
2024/03/03 08:23:06;;;;;;;19.53;13.97;;;;;;;14.17;74.53;96415.69;5147269;22;20544;-82
2024/03/03 08:25:28;;;;;;;19.60;13.87;;;;;;;14.24;73.58;96416.66;5167622;22;20563;-83
2024/03/03 08:27:51;;;;;;;20.77;14.13;;;;;;;14.50;76.96;96417.25;5168410;22;21121;-84
2024/03/03 08:30:13;;;;;;;20.30;14.50;;;;;;;14.62;71.80;96420.13;5146872;22;21179;-91
2024/03/03 08:32:35;;;;;;;18.63;13.87;;;;;;;14.62;73.46;96411.44;5146479;22;20562;-89
2024/03/03 08:34:57;;;;;;;20.57;14.23;;;;;;;14.71;72.10;96424.34;5167252;22;20556;-88
2024/03/03 08:37:19;;;;;;;19.80;13.90;;;;;;;14.73;72.05;96413.69;5190811;22;20519;-89
2024/03/03 08:39:41;;;;;;;18.97;13.77;;;;;;;14.87;72.10;96421.66;5190212;22;20844;-89
2024/03/03 08:42:04;;;;;;;20.33;14.20;;;;;;;14.84;71.25;96411.50;5143419;22;20521;-89
2024/03/03 08:44:27;;;;;;;20.20;14.70;;;;;;;14.85;71.73;96410.50;5167948;22;20525;-90
2024/03/03 08:46:50;;;;;;;20.40;13.27;;;;;;;14.91;71.94;96404.56;5145924;22;20618;-86
2024/03/03 08:49:12;;;;;;;19.10;13.83;;;;;;;14.76;70.29;96395.81;5168328;22;20544;-86
2024/03/03 08:51:38;;;;;;;20.23;13.53;;;;;;;14.77;70.91;96392.19;5190061;22;20521;-86
2024/03/03 08:54:00;;;;;;;17.53;12.97;;;;;;;14.85;73.18;96397.38;5189731;22;20503;-86
2024/03/03 08:56:22;;;;;;;19.20;12.93;;;;;;;15.03;71.19;96394.50;5145688;22;20565;-86
2024/03/03 08:58:44;;;;;;;18.23;12.23;;;;;;;15.13;71.81;96391.47;5146477;22;20553;-86
2024/03/03 09:01:09;;;;;;;16.13;12.50;;;;;;;15.30;70.94;96394.84;5167663;22;20563;-86
2024/03/03 09:03:34;;;;;;;16.00;12.00;;;;;;;15.57;70.94;96395.13;5146734;22;20937;-86
2024/03/03 09:05:56;;;;;;;17.17;11.40;;;;;;;15.62;70.29;96408.53;5145329;22;21144;-86
2024/03/03 09:08:18;;;;;;;17.87;12.57;;;;;;;15.66;69.62;96397.50;5146727;22;20519;-86
2024/03/03 09:10:40;;;;;;;16.87;11.87;;;;;;;15.82;68.66;96394.75;5146339;22;20611;-86
2024/03/03 09:13:02;;;;;;;17.30;12.47;;;;;;;15.94;67.41;96388.06;5146498;22;20631;-87
2024/03/03 09:15:24;;;;;;;14.73;10.40;;;;;;;15.86;69.08;96396.03;5191295;22;20525;-86
2024/03/03 09:17:47;;;;;;;16.50;11.27;;;;;;;15.88;69.97;96394.03;5146138;22;20874;-86
2024/03/03 09:20:10;;;;;;;14.53;10.63;;;;;;;15.73;68.87;96395.81;5144536;22;20937;-86
2024/03/03 09:22:32;;;;;;;15.40;10.93;;;;;;;15.54;70.12;96381.53;5191195;22;20566;-86
2024/03/03 09:24:58;;;;;;;14.40;10.90;;;;;;;15.42;70.69;96386.38;5167561;22;21073;-86
2024/03/03 09:27:20;;;;;;;14.37;9.87;;;;;;;15.47;69.70;96384.06;5145942;22;20522;-86
2024/03/03 09:29:41;;;;;;;13.97;10.60;;;;;;;15.63;69.31;96384.72;5144860;22;20523;-87
2024/03/03 09:32:03;;;;;;;13.83;10.17;;;;;;;15.75;68.89;96387.75;5145294;22;20518;-85
2024/03/03 09:34:27;;;;;;;16.67;9.93;;;;;;;15.76;69.63;96387.56;5144972;22;20511;-86
2024/03/03 09:36:49;;;;;;;12.97;9.50;;;;;;;15.61;68.83;96373.56;5145201;22;20534;-86
2024/03/03 09:39:11;;;;;;;13.50;9.07;;;;;;;15.61;68.56;96375.38;5191719;22;20505;-85
2024/03/03 09:41:34;;;;;;;13.70;9.83;;;;;;;15.83;68.50;96371.88;5190939;22;20576;-85
2024/03/03 09:44:00;;;;;;;17.33;9.90;;;;;;;16.16;70.35;96381.91;5168049;22;20592;-86
2024/03/03 09:46:22;;;;;;;16.13;11.53;;;;;;;16.50;71.61;96382.22;5167371;22;20883;-85
2024/03/03 09:48:45;;;;;;;12.53;9.50;;;;;;;16.69;70.19;96382.50;5167999;22;20526;-86
2024/03/03 09:51:09;;;;;;;13.93;10.60;;;;;;;16.80;71.09;96384.66;5191059;22;20850;-85
2024/03/03 09:53:31;;;;;;;14.63;10.43;;;;;;;17.02;69.30;96385.31;5190317;22;20562;-85
2024/03/03 09:55:55;;;;;;;13.67;10.20;;;;;;;17.15;68.96;96384.63;5143764;22;20528;-86
2024/03/03 09:58:16;;;;;;;13.40;9.80;;;;;;;17.24;70.50;96380.91;5145346;22;20594;-86
2024/03/03 10:00:39;;;;;;;13.20;10.50;;;;;;;17.33;69.05;96379.78;5146069;22;20573;-86
2024/03/03 10:03:02;;;;;;;14.83;9.77;;;;;;;17.46;68.20;96384.19;5146508;22;21061;-87
2024/03/03 10:05:25;;;;;;;11.27;9.00;;;;;;;17.43;67.29;96382.97;5145680;22;20636;-87
2024/03/03 10:07:52;;;;;;;12.50;9.50;;;;;;;17.41;67.38;96377.03;5146097;22;20528;-87
2024/03/03 10:10:18;;;;;;;11.07;8.30;;;;;;;17.32;67.49;96376.34;5145565;22;20520;-86
2024/03/03 10:12:44;;;;;;;11.67;9.20;;;;;;;17.49;68.81;96390.91;5144186;22;20589;-87
2024/03/03 10:15:08;;;;;;;11.80;9.47;;;;;;;17.70;69.45;96385.63;5187779;22;20605;-85
2024/03/03 10:17:30;;;;;;;10.20;8.07;;;;;;;17.69;65.48;96381.34;5145220;22;21193;-85
2024/03/03 10:19:52;;;;;;;10.73;7.93;;;;;;;17.55;65.32;96376.97;5167255;22;20558;-86
2024/03/03 10:22:19;;;;;;;9.90;8.20;;;;;;;17.44;65.41;96374.84;5146211;22;20932;-86
2024/03/03 10:24:43;;;;;;;10.13;8.17;;;;;;;17.57;65.76;96383.69;5145313;22;20521;-85
2024/03/03 10:27:07;;;;;;;10.70;7.53;;;;;;;17.68;66.01;96379.72;5145335;22;20519;-86
2024/03/03 10:29:29;;;;;;;10.20;7.90;;;;;;;17.80;67.36;96383.47;5144959;22;20528;-86
2024/03/03 10:31:55;;;;;;;11.10;8.30;;;;;;;17.87;67.49;96373.81;5143569;22;20517;-85
2024/03/03 10:34:18;;;;;;;10.33;7.10;;;;;;;17.96;67.73;96378.75;5145778;22;20626;-85
2024/03/03 10:36:40;;;;;;;8.40;6.90;;;;;;;17.99;65.69;96375.72;5165308;22;20544;-85